sensor_id;sensor_type;location;lat;lon;timestamp;pressure;altitude;pressure_sealevel;temperature;humidity
76260;BME280;65076;52.362;6.588;2023-12-14T00:05:56;100952.75;;;6.26;91.70
76260;BME280;65076;52.362;6.588;2023-12-14T00:08:28;100950.53;;;6.40;90.67
76260;BME280;65076;52.362;6.588;2023-12-14T00:16:07;100977.00;;;6.23;89.85
76260;BME280;65076;52.362;6.588;2023-12-14T00:21:09;100984.06;;;5.96;90.38
76260;BME280;65076;52.362;6.588;2023-12-14T00:23:42;100993.34;;;6.15;90.51
76260;BME280;65076;52.362;6.588;2023-12-14T00:31:24;101002.78;;;5.97;88.88
76260;BME280;65076;52.362;6.588;2023-12-14T00:36:25;100994.84;;;5.93;89.10
76260;BME280;65076;52.362;6.588;2023-12-14T00:41:24;101014.09;;;6.10;89.62
76260;BME280;65076;52.362;6.588;2023-12-14T00:43:58;101011.31;;;6.13;89.09
76260;BME280;65076;52.362;6.588;2023-12-14T00:51:34;101004.00;;;5.84;89.05
76260;BME280;65076;52.362;6.588;2023-12-14T00:59:03;101027.06;;;5.93;89.63
76260;BME280;65076;52.362;6.588;2023-12-14T01:01:35;101049.00;;;6.10;88.56
76260;BME280;65076;52.362;6.588;2023-12-14T01:11:36;101043.34;;;5.87;87.82
76260;BME280;65076;52.362;6.588;2023-12-14T01:16:38;101057.38;;;6.32;87.24
76260;BME280;65076;52.362;6.588;2023-12-14T01:26:40;101099.19;;;6.08;87.48
76260;BME280;65076;52.362;6.588;2023-12-14T01:31:47;101111.47;;;6.18;86.66
76260;BME280;65076;52.362;6.588;2023-12-14T01:34:19;101100.91;;;6.12;87.14
76260;BME280;65076;52.362;6.588;2023-12-14T01:39:40;101106.44;;;6.06;86.95
76260;BME280;65076;52.362;6.588;2023-12-14T01:47:17;101132.81;;;6.24;87.03
76260;BME280;65076;52.362;6.588;2023-12-14T01:54:51;101142.13;;;6.11;86.84
76260;BME280;65076;52.362;6.588;2023-12-14T02:02:23;101139.53;;;6.41;86.01
76260;BME280;65076;52.362;6.588;2023-12-14T02:07:25;101155.06;;;6.29;86.63
76260;BME280;65076;52.362;6.588;2023-12-14T02:12:26;101164.13;;;6.25;86.67
76260;BME280;65076;52.362;6.588;2023-12-14T02:17:35;101158.78;;;6.24;85.67
76260;BME280;65076;52.362;6.588;2023-12-14T02:25:07;101178.22;;;6.69;83.75
76260;BME280;65076;52.362;6.588;2023-12-14T02:30:10;101185.16;;;7.08;82.61
76260;BME280;65076;52.362;6.588;2023-12-14T02:35:11;101193.31;;;6.74;82.21
76260;BME280;65076;52.362;6.588;2023-12-14T02:40:15;101194.91;;;6.48;82.82
76260;BME280;65076;52.362;6.588;2023-12-14T02:47:44;101195.81;;;6.80;81.81
76260;BME280;65076;52.362;6.588;2023-12-14T02:52:45;101225.22;;;6.87;82.15
76260;BME280;65076;52.362;6.588;2023-12-14T02:55:20;101205.50;;;6.54;81.83
76260;BME280;65076;52.362;6.588;2023-12-14T03:02:53;101218.06;;;7.18;79.40
76260;BME280;65076;52.362;6.588;2023-12-14T03:10:27;101233.97;;;6.61;81.96
76260;BME280;65076;52.362;6.588;2023-12-14T03:15:28;101246.34;;;6.68;81.50
76260;BME280;65076;52.362;6.588;2023-12-14T03:18:00;101256.13;;;6.70;80.64
76260;BME280;65076;52.362;6.588;2023-12-14T03:28:04;101246.22;;;7.06;81.01
76260;BME280;65076;52.362;6.588;2023-12-14T03:33:03;101268.25;;;6.87;80.78
76260;BME280;65076;52.362;6.588;2023-12-14T03:35:37;101268.22;;;6.88;81.75
76260;BME280;65076;52.362;6.588;2023-12-14T03:48:09;101290.38;;;7.32;78.80
76260;BME280;65076;52.362;6.588;2023-12-14T03:53:11;101300.31;;;7.28;79.94
76260;BME280;65076;52.362;6.588;2023-12-14T03:58:13;101291.34;;;7.60;78.03
76260;BME280;65076;52.362;6.588;2023-12-14T04:00:45;101303.13;;;7.56;78.79
76260;BME280;65076;52.362;6.588;2023-12-14T04:08:22;101302.72;;;6.71;81.96
76260;BME280;65076;52.362;6.588;2023-12-14T04:13:22;101316.38;;;6.99;80.64
76260;BME280;65076;52.362;6.588;2023-12-14T04:15:53;101320.06;;;6.95;81.79
76260;BME280;65076;52.362;6.588;2023-12-14T04:23:29;101336.88;;;7.03;81.13
76260;BME280;65076;52.362;6.588;2023-12-14T04:28:30;101340.84;;;6.88;80.91
76260;BME280;65076;52.362;6.588;2023-12-14T04:31:05;101353.47;;;7.20;80.35
76260;BME280;65076;52.362;6.588;2023-12-14T04:38:42;101346.53;;;6.76;80.86
76260;BME280;65076;52.362;6.588;2023-12-14T04:43:45;101359.03;;;6.78;83.00
76260;BME280;65076;52.362;6.588;2023-12-14T04:51:17;101332.34;;;7.05;80.48
76260;BME280;65076;52.362;6.588;2023-12-14T04:56:27;101364.75;;;7.00;80.80
76260;BME280;65076;52.362;6.588;2023-12-14T05:03:57;101376.31;;;6.68;81.71
76260;BME280;65076;52.362;6.588;2023-12-14T05:08:56;101380.94;;;6.62;81.98
76260;BME280;65076;52.362;6.588;2023-12-14T05:14:02;101404.34;;;6.95;80.32
76260;BME280;65076;52.362;6.588;2023-12-14T05:16:35;101394.41;;;6.97;80.27
76260;BME280;65076;52.362;6.588;2023-12-14T05:24:09;101427.59;;;6.98;79.81
76260;BME280;65076;52.362;6.588;2023-12-14T05:29:17;101434.00;;;6.92;80.32
76260;BME280;65076;52.362;6.588;2023-12-14T05:34:19;101407.59;;;7.08;79.95
76260;BME280;65076;52.362;6.588;2023-12-14T05:36:51;101440.91;;;7.02;79.60
76260;BME280;65076;52.362;6.588;2023-12-14T05:44:31;101456.75;;;6.77;81.14
76260;BME280;65076;52.362;6.588;2023-12-14T05:54:37;101478.34;;;6.74;80.87
76260;BME280;65076;52.362;6.588;2023-12-14T05:57:16;101489.56;;;6.93;79.82
76260;BME280;65076;52.362;6.588;2023-12-14T06:02:24;101506.59;;;6.94;79.75
76260;BME280;65076;52.362;6.588;2023-12-14T06:07:27;101514.50;;;7.01;79.85
76260;BME280;65076;52.362;6.588;2023-12-14T06:12:27;101522.16;;;6.79;80.28
76260;BME280;65076;52.362;6.588;2023-12-14T06:14:59;101536.03;;;7.01;79.67
76260;BME280;65076;52.362;6.588;2023-12-14T06:22:34;101537.31;;;6.84;78.90
76260;BME280;65076;52.362;6.588;2023-12-14T06:32:38;101552.97;;;6.19;79.28
76260;BME280;65076;52.362;6.588;2023-12-14T06:40:14;101566.47;;;6.16;79.53
76260;BME280;65076;52.362;6.588;2023-12-14T06:45:18;101594.97;;;6.23;79.23
76260;BME280;65076;52.362;6.588;2023-12-14T06:50:19;101588.66;;;6.25;79.34
76260;BME280;65076;52.362;6.588;2023-12-14T06:52:55;101607.66;;;6.16;78.90
76260;BME280;65076;52.362;6.588;2023-12-14T06:55:35;101586.56;;;5.92;79.08
76260;BME280;65076;52.362;6.588;2023-12-14T07:00:39;101605.38;;;6.43;77.29
76260;BME280;65076;52.362;6.588;2023-12-14T07:05:41;101613.69;;;6.29;76.96
76260;BME280;65076;52.362;6.588;2023-12-14T07:08:14;101609.28;;;6.23;77.56
76260;BME280;65076;52.362;6.588;2023-12-14T07:15:51;101625.84;;;6.01;78.49
76260;BME280;65076;52.362;6.588;2023-12-14T07:18:31;101625.13;;;5.91;78.69
76260;BME280;65076;52.362;6.588;2023-12-14T07:23:37;101589.38;;;5.84;77.50
76260;BME280;65076;52.362;6.588;2023-12-14T07:31:13;101641.81;;;6.08;77.31
76260;BME280;65076;52.362;6.588;2023-12-14T07:41:14;101675.72;;;6.17;77.99
76260;BME280;65076;52.362;6.588;2023-12-14T07:51:14;101670.38;;;6.15;75.93
76260;BME280;65076;52.362;6.588;2023-12-14T07:53:49;101695.09;;;6.34;74.83
76260;BME280;65076;52.362;6.588;2023-12-14T08:06:24;101719.25;;;6.37;75.99
76260;BME280;65076;52.362;6.588;2023-12-14T08:11:27;101711.63;;;7.11;74.82
76260;BME280;65076;52.362;6.588;2023-12-14T08:16:26;101739.13;;;7.68;72.46
76260;BME280;65076;52.362;6.588;2023-12-14T08:21:30;101740.94;;;7.66;72.76
76260;BME280;65076;52.362;6.588;2023-12-14T08:26:31;101751.34;;;7.83;72.71
76260;BME280;65076;52.362;6.588;2023-12-14T08:29:11;101760.59;;;7.71;71.52
76260;BME280;65076;52.362;6.588;2023-12-14T08:31:43;101764.00;;;7.79;71.87
76260;BME280;65076;52.362;6.588;2023-12-14T08:39:18;101786.69;;;7.69;71.98
76260;BME280;65076;52.362;6.588;2023-12-14T08:44:22;101767.50;;;7.83;70.94
76260;BME280;65076;52.362;6.588;2023-12-14T08:51:59;101774.66;;;8.24;71.88
76260;BME280;65076;52.362;6.588;2023-12-14T08:54:35;101790.78;;;8.27;70.48
76260;BME280;65076;52.362;6.588;2023-12-14T09:04:37;101781.88;;;8.22;70.69
76260;BME280;65076;52.362;6.588;2023-12-14T09:14:36;101804.75;;;8.44;69.31
76260;BME280;65076;52.362;6.588;2023-12-14T09:19:44;101818.63;;;8.64;70.05
76260;BME280;65076;52.362;6.588;2023-12-14T09:24:44;101821.16;;;8.35;69.20
76260;BME280;65076;52.362;6.588;2023-12-14T09:27:17;101830.09;;;8.37;70.60
76260;BME280;65076;52.362;6.588;2023-12-14T09:37:27;101836.13;;;8.06;71.86
76260;BME280;65076;52.362;6.588;2023-12-14T09:44:57;101851.34;;;7.68;73.09
76260;BME280;65076;52.362;6.588;2023-12-14T09:55:12;101882.97;;;8.01;73.29
76260;BME280;65076;52.362;6.588;2023-12-14T10:00:30;101886.16;;;7.78;73.19
76260;BME280;65076;52.362;6.588;2023-12-14T10:05:32;101890.28;;;7.51;72.94
76260;BME280;65076;52.362;6.588;2023-12-14T10:08:05;101871.75;;;7.33;74.01
76260;BME280;65076;52.362;6.588;2023-12-14T10:20:40;101885.50;;;8.08;71.34
76260;BME280;65076;52.362;6.588;2023-12-14T10:30:41;101913.41;;;8.06;71.38
76260;BME280;65076;52.362;6.588;2023-12-14T10:38:17;101912.97;;;7.84;71.08
76260;BME280;65076;52.362;6.588;2023-12-14T10:45:53;101922.81;;;8.31;72.34
76260;BME280;65076;52.362;6.588;2023-12-14T10:48:26;101920.22;;;8.24;71.23
76260;BME280;65076;52.362;6.588;2023-12-14T11:55:34;101979.53;;;8.25;69.26
76260;BME280;65076;52.362;6.588;2023-12-14T12:20:28;102008.00;;;8.40;68.40
76260;BME280;65076;52.362;6.588;2023-12-14T12:23:01;102009.19;;;7.78;70.14
76260;BME280;65076;52.362;6.588;2023-12-14T12:25:41;102013.16;;;7.55;71.26
76260;BME280;65076;52.362;6.588;2023-12-14T12:45:31;102012.47;;;8.42;69.37
76260;BME280;65076;52.362;6.588;2023-12-14T13:00:23;102047.53;;;7.93;71.02
76260;BME280;65076;52.362;6.588;2023-12-14T13:07:58;102045.91;;;8.32;68.76
76260;BME280;65076;52.362;6.588;2023-12-14T13:17:56;102051.69;;;8.11;69.80
76260;BME280;65076;52.362;6.588;2023-12-14T13:35:21;102073.31;;;8.08;68.21
76260;BME280;65076;52.362;6.588;2023-12-14T13:50:14;102065.56;;;7.90;68.94
76260;BME280;65076;52.362;6.588;2023-12-14T13:52:50;102079.09;;;7.85;69.60
76260;BME280;65076;52.362;6.588;2023-12-14T13:57:49;102074.72;;;8.27;70.63
76260;BME280;65076;52.362;6.588;2023-12-14T14:00:22;102087.38;;;8.24;70.20
76260;BME280;65076;52.362;6.588;2023-12-14T14:08:09;102101.66;;;8.78;67.59
76260;BME280;65076;52.362;6.588;2023-12-14T14:15:43;102116.25;;;8.17;67.45
76260;BME280;65076;52.362;6.588;2023-12-14T14:20:44;102123.00;;;8.44;68.01
76260;BME280;65076;52.362;6.588;2023-12-14T14:23:19;102127.09;;;8.14;68.33
76260;BME280;65076;52.362;6.588;2023-12-14T14:30:52;102142.44;;;7.55;70.12
76260;BME280;65076;52.362;6.588;2023-12-14T14:40:54;102158.41;;;7.68;69.95
76260;BME280;65076;52.362;6.588;2023-12-14T14:43:29;102137.69;;;8.25;69.36
76260;BME280;65076;52.362;6.588;2023-12-14T14:56:02;102163.94;;;8.66;67.31
76260;BME280;65076;52.362;6.588;2023-12-14T15:01:04;102171.31;;;8.02;68.63
76260;BME280;65076;52.362;6.588;2023-12-14T15:03:42;102185.34;;;8.24;69.63
76260;BME280;65076;52.362;6.588;2023-12-14T15:06:21;102174.75;;;8.14;69.51
76260;BME280;65076;52.362;6.588;2023-12-14T15:13:53;102198.59;;;7.83;70.16
76260;BME280;65076;52.362;6.588;2023-12-14T15:21:29;102233.38;;;7.34;72.97
76260;BME280;65076;52.362;6.588;2023-12-14T15:29:06;102243.41;;;7.22;73.96
76260;BME280;65076;52.362;6.588;2023-12-14T15:31:40;102247.53;;;7.51;72.81
76260;BME280;65076;52.362;6.588;2023-12-14T15:36:50;102242.13;;;7.52;72.30
76260;BME280;65076;52.362;6.588;2023-12-14T15:41:49;102238.38;;;6.94;73.33
76260;BME280;65076;52.362;6.588;2023-12-14T15:46:50;102276.63;;;7.21;73.59
76260;BME280;65076;52.362;6.588;2023-12-14T15:56:54;102290.66;;;6.64;75.04
76260;BME280;65076;52.362;6.588;2023-12-14T16:04:24;102266.38;;;6.71;76.05
76260;BME280;65076;52.362;6.588;2023-12-14T16:09:23;102289.81;;;6.56;77.10
76260;BME280;65076;52.362;6.588;2023-12-14T16:12:01;102301.28;;;6.76;76.42
76260;BME280;65076;52.362;6.588;2023-12-14T16:22:02;102284.03;;;7.00;75.96
76260;BME280;65076;52.362;6.588;2023-12-14T16:24:44;102309.91;;;7.13;75.59
76260;BME280;65076;52.362;6.588;2023-12-14T16:27:21;102275.09;;;6.96;76.25
76260;BME280;65076;52.362;6.588;2023-12-14T16:32:27;102322.03;;;7.52;74.60
76260;BME280;65076;52.362;6.588;2023-12-14T16:35:00;102281.84;;;7.34;73.19
76260;BME280;65076;52.362;6.588;2023-12-14T16:42:38;102326.72;;;7.35;74.84
76260;BME280;65076;52.362;6.588;2023-12-14T16:47:40;102324.41;;;6.97;75.35
76260;BME280;65076;52.362;6.588;2023-12-14T16:55:14;102310.56;;;7.38;74.21
76260;BME280;65076;52.362;6.588;2023-12-14T17:00:18;102319.47;;;7.41;73.42
76260;BME280;65076;52.362;6.588;2023-12-14T17:05:17;102331.44;;;7.13;73.66
76260;BME280;65076;52.362;6.588;2023-12-14T17:12:46;102341.53;;;6.88;75.72
76260;BME280;65076;52.362;6.588;2023-12-14T17:15:21;102329.84;;;6.95;75.85
76260;BME280;65076;52.362;6.588;2023-12-14T17:17:52;102323.84;;;6.63;76.44
76260;BME280;65076;52.362;6.588;2023-12-14T17:25:27;102360.34;;;6.96;76.23
76260;BME280;65076;52.362;6.588;2023-12-14T17:28:00;102383.66;;;6.94;76.40
76260;BME280;65076;52.362;6.588;2023-12-14T17:30:36;102391.69;;;6.98;77.07
76260;BME280;65076;52.362;6.588;2023-12-14T17:35:40;102384.47;;;7.05;77.59
76260;BME280;65076;52.362;6.588;2023-12-14T17:40:44;102382.03;;;6.73;77.19
76260;BME280;65076;52.362;6.588;2023-12-14T17:50:59;102387.06;;;7.12;76.45
76260;BME280;65076;52.362;6.588;2023-12-14T17:53:35;102392.22;;;7.37;75.89
76260;BME280;65076;52.362;6.588;2023-12-14T18:01:10;102379.78;;;7.25;75.16
76260;BME280;65076;52.362;6.588;2023-12-14T18:06:17;102374.06;;;7.54;74.91
76260;BME280;65076;52.362;6.588;2023-12-14T18:08:49;102370.41;;;6.65;75.92
76260;BME280;65076;52.362;6.588;2023-12-14T18:11:29;102384.31;;;7.21;76.28
76260;BME280;65076;52.362;6.588;2023-12-14T18:14:02;102403.00;;;7.37;76.13
76260;BME280;65076;52.362;6.588;2023-12-14T18:19:03;102390.03;;;6.84;77.38
76260;BME280;65076;52.362;6.588;2023-12-14T18:21:35;102383.13;;;6.48;77.69
76260;BME280;65076;52.362;6.588;2023-12-14T18:29:11;102404.25;;;6.96;76.96
76260;BME280;65076;52.362;6.588;2023-12-14T18:34:12;102398.66;;;7.19;76.75
76260;BME280;65076;52.362;6.588;2023-12-14T18:39:13;102397.00;;;7.06;75.89
76260;BME280;65076;52.362;6.588;2023-12-14T18:41:48;102427.41;;;7.17;76.81
76260;BME280;65076;52.362;6.588;2023-12-14T18:46:51;102427.19;;;7.41;76.32
76260;BME280;65076;52.362;6.588;2023-12-14T18:51:58;102436.84;;;7.60;75.72
76260;BME280;65076;52.362;6.588;2023-12-14T18:54:29;102426.19;;;7.50;75.25
76260;BME280;65076;52.362;6.588;2023-12-14T18:59:37;102442.00;;;7.82;76.44
76260;BME280;65076;52.362;6.588;2023-12-14T19:07:11;102443.25;;;7.49;75.31
76260;BME280;65076;52.362;6.588;2023-12-14T19:12:13;102424.00;;;6.92;77.86
76260;BME280;65076;52.362;6.588;2023-12-14T19:14:51;102466.63;;;7.44;76.93
76260;BME280;65076;52.362;6.588;2023-12-14T19:24:55;102458.78;;;7.21;76.77
76260;BME280;65076;52.362;6.588;2023-12-14T19:32:28;102472.75;;;7.61;76.53
76260;BME280;65076;52.362;6.588;2023-12-14T19:40:01;102496.38;;;7.30;77.41
76260;BME280;65076;52.362;6.588;2023-12-14T19:42:37;102507.91;;;7.46;77.14
76260;BME280;65076;52.362;6.588;2023-12-14T19:50:13;102501.19;;;6.90;79.27
76260;BME280;65076;52.362;6.588;2023-12-14T19:55:17;102517.25;;;6.99;77.85
76260;BME280;65076;52.362;6.588;2023-12-14T20:00:18;102517.91;;;7.32;78.33
76260;BME280;65076;52.362;6.588;2023-12-14T20:05:19;102524.13;;;7.40;78.15
76260;BME280;65076;52.362;6.588;2023-12-14T20:07:53;102518.81;;;7.29;77.26
76260;BME280;65076;52.362;6.588;2023-12-14T20:15:29;102516.94;;;7.42;77.59
76260;BME280;65076;52.362;6.588;2023-12-14T20:20:29;102528.72;;;7.26;78.73
76260;BME280;65076;52.362;6.588;2023-12-14T20:23:03;102531.53;;;7.07;78.59
76260;BME280;65076;52.362;6.588;2023-12-14T20:30:37;102530.78;;;6.89;80.45
76260;BME280;65076;52.362;6.588;2023-12-14T20:38:10;102546.78;;;7.10;80.29
76260;BME280;65076;52.362;6.588;2023-12-14T20:45:44;102554.94;;;7.01;80.42
76260;BME280;65076;52.362;6.588;2023-12-14T21:00:48;102570.38;;;6.55;82.50
76260;BME280;65076;52.362;6.588;2023-12-14T21:05:48;102557.66;;;6.92;82.66
76260;BME280;65076;52.362;6.588;2023-12-14T21:08:20;102557.63;;;6.99;82.35
76260;BME280;65076;52.362;6.588;2023-12-14T21:13:29;102570.16;;;7.05;81.33
76260;BME280;65076;52.362;6.588;2023-12-14T21:21:06;102591.72;;;6.93;83.47
76260;BME280;65076;52.362;6.588;2023-12-14T21:31:07;102578.91;;;7.34;82.78
76260;BME280;65076;52.362;6.588;2023-12-14T21:36:23;102574.31;;;7.50;82.18
76260;BME280;65076;52.362;6.588;2023-12-14T21:43:54;102559.34;;;7.08;81.95
76260;BME280;65076;52.362;6.588;2023-12-14T21:48:58;102568.09;;;7.42;80.39
76260;BME280;65076;52.362;6.588;2023-12-14T21:54:09;102597.84;;;7.25;82.55
76260;BME280;65076;52.362;6.588;2023-12-14T21:56:41;102579.03;;;7.19;83.21
76260;BME280;65076;52.362;6.588;2023-12-14T21:59:18;102594.38;;;7.06;82.94
76260;BME280;65076;52.362;6.588;2023-12-14T22:06:51;102583.72;;;6.82;83.77
76260;BME280;65076;52.362;6.588;2023-12-14T22:09:28;102580.03;;;6.97;83.79
76260;BME280;65076;52.362;6.588;2023-12-14T22:19:34;102593.50;;;7.00;84.78
76260;BME280;65076;52.362;6.588;2023-12-14T22:24:40;102597.91;;;7.14;83.72
76260;BME280;65076;52.362;6.588;2023-12-14T22:32:12;102587.09;;;7.17;83.53
76260;BME280;65076;52.362;6.588;2023-12-14T22:34:44;102610.44;;;7.21;83.98
76260;BME280;65076;52.362;6.588;2023-12-14T22:42:21;102604.13;;;7.22;82.61
76260;BME280;65076;52.362;6.588;2023-12-14T22:47:21;102616.63;;;7.36;84.06
76260;BME280;65076;52.362;6.588;2023-12-14T22:49:56;102622.84;;;7.39;83.48
76260;BME280;65076;52.362;6.588;2023-12-14T22:57:33;102638.16;;;7.37;82.42
76260;BME280;65076;52.362;6.588;2023-12-14T23:00:07;102628.28;;;7.33;83.50
76260;BME280;65076;52.362;6.588;2023-12-14T23:07:40;102639.19;;;7.10;83.59
76260;BME280;65076;52.362;6.588;2023-12-14T23:12:46;102622.00;;;7.34;83.93
76260;BME280;65076;52.362;6.588;2023-12-14T23:17:48;102633.69;;;7.32;83.94
76260;BME280;65076;52.362;6.588;2023-12-14T23:22:50;102628.34;;;7.24;84.56
76260;BME280;65076;52.362;6.588;2023-12-14T23:25:22;102614.09;;;7.05;83.93
76260;BME280;65076;52.362;6.588;2023-12-14T23:35:30;102639.97;;;7.32;85.30
76260;BME280;65076;52.362;6.588;2023-12-14T23:40:30;102638.00;;;7.55;83.09
76260;BME280;65076;52.362;6.588;2023-12-14T23:43:01;102649.78;;;7.39;83.13
76260;BME280;65076;52.362;6.588;2023-12-14T23:50:35;102656.88;;;7.54;83.01
76260;BME280;65076;52.362;6.588;2023-12-14T23:58:07;102657.16;;;7.05;84.86
